METAR Data
IDs: Format: Raw Decoded Include TAF

Data at: 0800 UTC 30 Oct 2020

METAR for:KOTH (North Bend/SW Oregon, OR, US)
Text:KOTH 300756Z AUTO 13005KT 7SM OVC007 11/11 A3011 RMK AO2 SLP196 T01060106 401780044
Temperature: 10.6°C ( 51°F)
Dewpoint: 10.6°C ( 51°F) [RH = 100%]
Pressure (altimeter):30.11 inches Hg (1019.7 mb) [Sea level pressure: 1019.6 mb]
Winds:from the SE (130 degrees) at 6 MPH (5 knots; 2.6 m/s)
Visibility: 7 sm ( 11 km)
Ceiling:700 feet AGL
Clouds: overcast cloud deck at 700 feet AGL
QC Flag:automated observation with no human augmentation
Text:KOTH 300703Z AUTO 11004KT 7SM OVC005 11/11 A3012 RMK AO2 CIG 004V007
Temperature: 11.0°C ( 52°F)
Dewpoint: 11.0°C ( 52°F) [RH = 100%]
Pressure (altimeter):30.12 inches Hg (1020.1 mb)
Winds:from the ESE (110 degrees) at 5 MPH (4 knots; 2.1 m/s)
Visibility: 7 sm ( 11 km)
Ceiling:500 feet AGL
Clouds: overcast cloud deck at 500 feet AGL
QC Flag:automated observation with no human augmentation
Text:KOTH 300656Z AUTO 12005KT 8SM OVC007 11/11 A3012 RMK AO2 CIG 004V008 SLP199 T01060106
Temperature: 10.6°C ( 51°F)
Dewpoint: 10.6°C ( 51°F) [RH = 100%]
Pressure (altimeter):30.12 inches Hg (1020.1 mb) [Sea level pressure: 1019.9 mb]
Winds:from the ESE (120 degrees) at 6 MPH (5 knots; 2.6 m/s)
Visibility: 8 sm ( 13 km)
Ceiling:700 feet AGL
Clouds: overcast cloud deck at 700 feet AGL
QC Flag:automated observation with no human augmentation

METAR for:KAST (Astoria Rgnl, OR, US)
Text:KAST 300755Z AUTO 12004KT 10SM FEW034 06/05 A3000 RMK AO2 SLP159 T00610050 401720061
Temperature: 6.1°C ( 43°F)
Dewpoint: 5.0°C ( 41°F) [RH = 93%]
Pressure (altimeter):30.00 inches Hg (1016.0 mb) [Sea level pressure: 1015.9 mb]
Winds:from the ESE (120 degrees) at 5 MPH (4 knots; 2.1 m/s)
Visibility:10 or more sm (16+ km)
Ceiling:at least 12,000 feet AGL
Clouds: few clouds at 3400 feet AGL
QC Flag:automated observation with no human augmentation
Text:KAST 300655Z AUTO 13004KT 10SM CLR 07/06 A3002 RMK AO2 SLP165 T00670056
Temperature: 6.7°C ( 44°F)
Dewpoint: 5.6°C ( 42°F) [RH = 93%]
Pressure (altimeter):30.02 inches Hg (1016.7 mb) [Sea level pressure: 1016.5 mb]
Winds:from the SE (130 degrees) at 5 MPH (4 knots; 2.1 m/s)
Visibility:10 or more sm (16+ km)
Ceiling:at least 12,000 feet AGL
Clouds:sky clear below 12,000 feet AGL
QC Flag:automated observation with no human augmentation

METAR for:KPDX (Portland Intl Arpt, OR, US)
Text:KPDX 300753Z 13004KT 4SM BR FEW003 07/06 A3004 RMK AO2 SLP171 T00720061 401500067
Temperature: 7.2°C ( 45°F)
Dewpoint: 6.1°C ( 43°F) [RH = 93%]
Pressure (altimeter):30.04 inches Hg (1017.4 mb) [Sea level pressure: 1017.1 mb]
Winds:from the SE (130 degrees) at 5 MPH (4 knots; 2.1 m/s)
Visibility: 4 sm ( 6 km)
Ceiling:at least 12,000 feet AGL
Clouds: few clouds at 300 feet AGL
Weather:BR (mist)
Text:KPDX 300653Z 12003KT 6SM BR FEW003 08/07 A3004 RMK AO2 SLP170 T00780067
Temperature: 7.8°C ( 46°F)
Dewpoint: 6.7°C ( 44°F) [RH = 93%]
Pressure (altimeter):30.04 inches Hg (1017.4 mb) [Sea level pressure: 1017.0 mb]
Winds:from the ESE (120 degrees) at 3 MPH (3 knots; 1.5 m/s)
Visibility: 6 sm ( 10 km)
Ceiling:at least 12,000 feet AGL
Clouds: few clouds at 300 feet AGL
Weather:BR (mist)
Text:KPDX 300610Z 14003KT 4SM R10R/2000V6000FT MIFG FEW003 07/06 A3004 RMK AO2 T00670056
Temperature: 6.7°C ( 44°F)
Dewpoint: 5.6°C ( 42°F) [RH = 93%]
Pressure (altimeter):30.04 inches Hg (1017.4 mb)
Winds:from the SE (140 degrees) at 3 MPH (3 knots; 1.5 m/s)
Visibility: 4 sm ( 6 km)
Ceiling:at least 12,000 feet AGL
Clouds: few clouds at 300 feet AGL
Weather:MIFG (shallow fog)
Text:KPDX 300607Z 16003KT 1 1/2SM R10R/2000VP6000FT MIFG CLR 07/06 A3005 RMK AO2 T00670056
Temperature: 6.7°C ( 44°F)
Dewpoint: 5.6°C ( 42°F) [RH = 93%]
Pressure (altimeter):30.05 inches Hg (1017.7 mb)
Winds:from the SSE (160 degrees) at 3 MPH (3 knots; 1.5 m/s)
Visibility: 1.50 sm ( 2.41 km)
Ceiling:at least 12,000 feet AGL
Clouds:sky clear below 12,000 feet AGL
Weather:MIFG (shallow fog)

METAR for:KDLS (The Dalles Muni, OR, US)
Text:KDLS 300753Z AUTO 10007KT 10SM CLR 07/04 A2995 RMK AO2 SLP144 T00720044 402280039
Temperature: 7.2°C ( 45°F)
Dewpoint: 4.4°C ( 40°F) [RH = 82%]
Pressure (altimeter):29.95 inches Hg (1014.3 mb) [Sea level pressure: 1014.4 mb]
Winds:from the E (100 degrees) at 8 MPH (7 knots; 3.6 m/s)
Visibility:10 or more sm (16+ km)
Ceiling:at least 12,000 feet AGL
Clouds:sky clear below 12,000 feet AGL
QC Flag:automated observation with no human augmentation
Text:KDLS 300653Z AUTO 17003KT 10SM CLR 08/06 A2997 RMK AO2 SLP149 T00830056
Temperature: 8.3°C ( 47°F)
Dewpoint: 5.6°C ( 42°F) [RH = 83%]
Pressure (altimeter):29.97 inches Hg (1015.0 mb) [Sea level pressure: 1014.9 mb]
Winds:from the S (170 degrees) at 3 MPH (3 knots; 1.5 m/s)
Visibility:10 or more sm (16+ km)
Ceiling:at least 12,000 feet AGL
Clouds:sky clear below 12,000 feet AGL
QC Flag:automated observation with no human augmentation

METAR for:KPSC (Pasco/Tri Cities Arp, WA, US)
Text:KPSC 300753Z AUTO 35005KT 6SM BR CLR 01/01 A2992 RMK AO2 SLP134 T00110011 402001028
Temperature: 1.1°C ( 34°F)
Dewpoint: 1.1°C ( 34°F) [RH = 100%]
Pressure (altimeter):29.92 inches Hg (1013.3 mb) [Sea level pressure: 1013.4 mb]
Winds:from the N (350 degrees) at 6 MPH (5 knots; 2.6 m/s)
Visibility: 6 sm ( 10 km)
Ceiling:at least 12,000 feet AGL
Clouds:sky clear below 12,000 feet AGL
Weather:BR (mist)
QC Flag:automated observation with no human augmentation
Text:KPSC 300653Z AUTO 00000KT 7SM CLR 03/02 A2994 RMK AO2 SLP139 T00280022
Temperature: 2.8°C ( 37°F)
Dewpoint: 2.2°C ( 36°F) [RH = 96%]
Pressure (altimeter):29.94 inches Hg (1014.0 mb) [Sea level pressure: 1013.9 mb]
Winds:calm
Visibility: 7 sm ( 11 km)
Ceiling:at least 12,000 feet AGL
Clouds:sky clear below 12,000 feet AGL
QC Flag:automated observation with no human augmentation

METAR for:KHRI (Hermiston Muni, OR, US)
Text:KHRI 300753Z AUTO 13004KT 10SM CLR 06/02 A2992 RMK AO2 SLP130 T00560017 402280000
Temperature: 5.6°C ( 42°F)
Dewpoint: 1.7°C ( 35°F) [RH = 76%]
Pressure (altimeter):29.92 inches Hg (1013.3 mb) [Sea level pressure: 1013.0 mb]
Winds:from the SE (130 degrees) at 5 MPH (4 knots; 2.1 m/s)
Visibility:10 or more sm (16+ km)
Ceiling:at least 12,000 feet AGL
Clouds:sky clear below 12,000 feet AGL
QC Flag:automated observation with no human augmentation
Text:KHRI 300653Z AUTO 19003KT 10SM CLR 07/02 A2993 RMK AO2 SLP134 T00670017
Temperature: 6.7°C ( 44°F)
Dewpoint: 1.7°C ( 35°F) [RH = 70%]
Pressure (altimeter):29.93 inches Hg (1013.6 mb) [Sea level pressure: 1013.4 mb]
Winds:from the S (190 degrees) at 3 MPH (3 knots; 1.5 m/s)
Visibility:10 or more sm (16+ km)
Ceiling:at least 12,000 feet AGL
Clouds:sky clear below 12,000 feet AGL
QC Flag:automated observation with no human augmentation

METAR for:KGEG (Spokane Intl, WA, US)
Text:KGEG 300753Z 07004KT 10SM FEW200 BKN250 03/01 A2994 RMK AO2 SLP144 T00280011 401500028
Temperature: 2.8°C ( 37°F)
Dewpoint: 1.1°C ( 34°F) [RH = 89%]
Pressure (altimeter):29.94 inches Hg (1014.0 mb) [Sea level pressure: 1014.4 mb]
Winds:from the ENE (70 degrees) at 5 MPH (4 knots; 2.1 m/s)
Visibility:10 or more sm (16+ km)
Ceiling:25000 feet AGL
Clouds: few clouds at 20000 feet AGL, broken clouds at 25000 feet AGL
Text:KGEG 300653Z 13004KT 10SM FEW200 06/02 A2995 RMK AO2 SLP148 T00610017
Temperature: 6.1°C ( 43°F)
Dewpoint: 1.7°C ( 35°F) [RH = 73%]
Pressure (altimeter):29.95 inches Hg (1014.3 mb) [Sea level pressure: 1014.8 mb]
Winds:from the SE (130 degrees) at 5 MPH (4 knots; 2.1 m/s)
Visibility:10 or more sm (16+ km)
Ceiling:at least 12,000 feet AGL
Clouds: few clouds at 20000 feet AGL